sensor_id;sensor_type;location;lat;lon;timestamp;P1;durP1;ratioP1;P2;durP2;ratioP2
34230;SDS011;21574;51.538;-0.084;2022-11-15T00:01:14;3.88;;;2.75;;
34230;SDS011;21574;51.538;-0.084;2022-11-15T00:03:41;3.22;;;2.60;;
34230;SDS011;21574;51.538;-0.084;2022-11-15T00:06:08;3.95;;;2.90;;
34230;SDS011;21574;51.538;-0.084;2022-11-15T00:08:34;3.05;;;2.38;;
34230;SDS011;21574;51.538;-0.084;2022-11-15T00:11:00;3.08;;;2.63;;
34230;SDS011;21574;51.538;-0.084;2022-11-15T00:13:27;2.58;;;2.28;;
34230;SDS011;21574;51.538;-0.084;2022-11-15T00:15:56;4.05;;;3.25;;
34230;SDS011;21574;51.538;-0.084;2022-11-15T00:18:23;3.38;;;2.47;;
34230;SDS011;21574;51.538;-0.084;2022-11-15T00:20:48;4.30;;;2.47;;
34230;SDS011;21574;51.538;-0.084;2022-11-15T00:23:14;2.92;;;2.53;;
34230;SDS011;21574;51.538;-0.084;2022-11-15T00:25:40;3.47;;;2.45;;
34230;SDS011;21574;51.538;-0.084;2022-11-15T00:28:06;3.00;;;2.65;;
34230;SDS011;21574;51.538;-0.084;2022-11-15T00:30:31;3.15;;;2.38;;
34230;SDS011;21574;51.538;-0.084;2022-11-15T00:33:00;5.00;;;3.03;;
34230;SDS011;21574;51.538;-0.084;2022-11-15T00:35:33;3.38;;;2.42;;
34230;SDS011;21574;51.538;-0.084;2022-11-15T00:38:00;3.53;;;2.28;;
34230;SDS011;21574;51.538;-0.084;2022-11-15T00:40:26;3.80;;;2.63;;
34230;SDS011;21574;51.538;-0.084;2022-11-15T00:42:52;2.80;;;2.10;;
34230;SDS011;21574;51.538;-0.084;2022-11-15T00:45:18;3.35;;;2.50;;
34230;SDS011;21574;51.538;-0.084;2022-11-15T00:47:44;3.55;;;2.60;;
34230;SDS011;21574;51.538;-0.084;2022-11-15T00:50:10;3.47;;;2.30;;
34230;SDS011;21574;51.538;-0.084;2022-11-15T00:52:36;2.78;;;2.35;;
34230;SDS011;21574;51.538;-0.084;2022-11-15T00:55:01;2.80;;;2.40;;
34230;SDS011;21574;51.538;-0.084;2022-11-15T00:57:27;3.20;;;2.47;;
34230;SDS011;21574;51.538;-0.084;2022-11-15T00:59:53;4.22;;;2.33;;
34230;SDS011;21574;51.538;-0.084;2022-11-15T01:02:18;2.75;;;2.00;;
34230;SDS011;21574;51.538;-0.084;2022-11-15T01:04:44;3.15;;;2.20;;
34230;SDS011;21574;51.538;-0.084;2022-11-15T01:07:09;3.60;;;2.30;;
34230;SDS011;21574;51.538;-0.084;2022-11-15T01:09:35;3.75;;;2.50;;
34230;SDS011;21574;51.538;-0.084;2022-11-15T01:12:01;2.45;;;2.15;;
34230;SDS011;21574;51.538;-0.084;2022-11-15T01:14:26;3.17;;;2.20;;
34230;SDS011;21574;51.538;-0.084;2022-11-15T01:16:52;2.97;;;2.20;;
34230;SDS011;21574;51.538;-0.084;2022-11-15T01:19:18;2.63;;;2.08;;
34230;SDS011;21574;51.538;-0.084;2022-11-15T01:21:43;2.55;;;2.10;;
34230;SDS011;21574;51.538;-0.084;2022-11-15T01:24:12;3.35;;;2.33;;
34230;SDS011;21574;51.538;-0.084;2022-11-15T01:26:38;2.40;;;1.85;;
34230;SDS011;21574;51.538;-0.084;2022-11-15T01:29:03;3.05;;;2.00;;
34230;SDS011;21574;51.538;-0.084;2022-11-15T01:31:29;3.97;;;2.00;;
34230;SDS011;21574;51.538;-0.084;2022-11-15T01:33:55;2.33;;;2.05;;
34230;SDS011;21574;51.538;-0.084;2022-11-15T01:36:21;2.97;;;2.08;;
34230;SDS011;21574;51.538;-0.084;2022-11-15T01:38:52;2.85;;;2.00;;
34230;SDS011;21574;51.538;-0.084;2022-11-15T01:41:20;3.30;;;2.30;;
34230;SDS011;21574;51.538;-0.084;2022-11-15T01:43:57;2.95;;;1.83;;
34230;SDS011;21574;51.538;-0.084;2022-11-15T01:46:42;2.65;;;1.98;;
34230;SDS011;21574;51.538;-0.084;2022-11-15T01:49:12;3.65;;;2.10;;
34230;SDS011;21574;51.538;-0.084;2022-11-15T01:51:44;2.83;;;1.67;;
34230;SDS011;21574;51.538;-0.084;2022-11-15T01:54:11;2.85;;;1.98;;
34230;SDS011;21574;51.538;-0.084;2022-11-15T01:56:46;1.95;;;1.75;;
34230;SDS011;21574;51.538;-0.084;2022-11-15T01:59:26;2.95;;;2.03;;
34230;SDS011;21574;51.538;-0.084;2022-11-15T02:01:52;3.05;;;1.98;;
34230;SDS011;21574;51.538;-0.084;2022-11-15T02:04:37;3.70;;;1.90;;
34230;SDS011;21574;51.538;-0.084;2022-11-15T02:07:09;4.32;;;2.10;;
34230;SDS011;21574;51.538;-0.084;2022-11-15T02:09:37;3.63;;;2.00;;
34230;SDS011;21574;51.538;-0.084;2022-11-15T02:12:04;3.83;;;2.00;;
34230;SDS011;21574;51.538;-0.084;2022-11-15T02:14:32;3.00;;;1.90;;
34230;SDS011;21574;51.538;-0.084;2022-11-15T02:19:38;2.78;;;1.50;;
34230;SDS011;21574;51.538;-0.084;2022-11-15T02:28:33;2.47;;;1.88;;
34230;SDS011;21574;51.538;-0.084;2022-11-15T02:31:13;2.20;;;1.63;;
34230;SDS011;21574;51.538;-0.084;2022-11-15T02:36:49;3.22;;;1.90;;
34230;SDS011;21574;51.538;-0.084;2022-11-15T02:39:36;2.55;;;1.70;;
34230;SDS011;21574;51.538;-0.084;2022-11-15T02:42:24;2.20;;;1.70;;
34230;SDS011;21574;51.538;-0.084;2022-11-15T02:45:11;3.13;;;2.10;;
34230;SDS011;21574;51.538;-0.084;2022-11-15T02:47:43;3.72;;;2.10;;
34230;SDS011;21574;51.538;-0.084;2022-11-15T02:50:11;3.20;;;1.85;;
34230;SDS011;21574;51.538;-0.084;2022-11-15T02:52:40;2.97;;;2.05;;
34230;SDS011;21574;51.538;-0.084;2022-11-15T02:55:26;4.18;;;2.10;;
34230;SDS011;21574;51.538;-0.084;2022-11-15T03:00:41;2.05;;;1.55;;
34230;SDS011;21574;51.538;-0.084;2022-11-15T03:03:29;3.08;;;1.77;;
34230;SDS011;21574;51.538;-0.084;2022-11-15T03:06:24;2.35;;;1.42;;
34230;SDS011;21574;51.538;-0.084;2022-11-15T03:11:40;3.67;;;1.90;;
34230;SDS011;21574;51.538;-0.084;2022-11-15T03:14:23;2.78;;;1.83;;
34230;SDS011;21574;51.538;-0.084;2022-11-15T03:19:47;3.50;;;2.22;;
34230;SDS011;21574;51.538;-0.084;2022-11-15T03:22:16;2.80;;;1.70;;
34230;SDS011;21574;51.538;-0.084;2022-11-15T03:24:45;3.35;;;2.10;;
34230;SDS011;21574;51.538;-0.084;2022-11-15T03:27:15;3.00;;;2.15;;
34230;SDS011;21574;51.538;-0.084;2022-11-15T03:29:47;2.83;;;1.80;;
34230;SDS011;21574;51.538;-0.084;2022-11-15T03:32:25;2.30;;;1.70;;
34230;SDS011;21574;51.538;-0.084;2022-11-15T03:34:57;3.33;;;1.92;;
34230;SDS011;21574;51.538;-0.084;2022-11-15T03:38:10;2.90;;;1.90;;
34230;SDS011;21574;51.538;-0.084;2022-11-15T03:40:35;2.70;;;1.58;;
34230;SDS011;21574;51.538;-0.084;2022-11-15T03:43:07;2.45;;;1.50;;
34230;SDS011;21574;51.538;-0.084;2022-11-15T03:45:45;2.25;;;1.88;;
34230;SDS011;21574;51.538;-0.084;2022-11-15T03:48:18;2.35;;;1.33;;
34230;SDS011;21574;51.538;-0.084;2022-11-15T03:50:47;3.15;;;1.60;;
34230;SDS011;21574;51.538;-0.084;2022-11-15T03:53:14;2.28;;;1.30;;
34230;SDS011;21574;51.538;-0.084;2022-11-15T03:55:39;3.13;;;1.98;;
34230;SDS011;21574;51.538;-0.084;2022-11-15T03:58:05;2.85;;;1.73;;
34230;SDS011;21574;51.538;-0.084;2022-11-15T04:00:31;2.95;;;1.52;;
34230;SDS011;21574;51.538;-0.084;2022-11-15T04:02:57;2.70;;;1.70;;
34230;SDS011;21574;51.538;-0.084;2022-11-15T04:05:23;3.45;;;1.63;;
34230;SDS011;21574;51.538;-0.084;2022-11-15T04:07:48;2.13;;;1.33;;
34230;SDS011;21574;51.538;-0.084;2022-11-15T04:10:14;3.08;;;1.80;;
34230;SDS011;21574;51.538;-0.084;2022-11-15T04:12:40;2.35;;;1.50;;
34230;SDS011;21574;51.538;-0.084;2022-11-15T04:15:15;2.65;;;1.35;;
34230;SDS011;21574;51.538;-0.084;2022-11-15T04:17:51;2.58;;;1.58;;
34230;SDS011;21574;51.538;-0.084;2022-11-15T04:23:11;2.40;;;1.52;;
34230;SDS011;21574;51.538;-0.084;2022-11-15T04:25:58;2.38;;;1.50;;
34230;SDS011;21574;51.538;-0.084;2022-11-15T04:28:26;2.67;;;1.30;;
34230;SDS011;21574;51.538;-0.084;2022-11-15T04:30:51;3.55;;;1.60;;
34230;SDS011;21574;51.538;-0.084;2022-11-15T04:33:17;3.35;;;2.05;;
34230;SDS011;21574;51.538;-0.084;2022-11-15T04:35:43;2.17;;;1.40;;
34230;SDS011;21574;51.538;-0.084;2022-11-15T04:38:09;1.95;;;1.40;;
34230;SDS011;21574;51.538;-0.084;2022-11-15T04:43:02;3.40;;;1.65;;
34230;SDS011;21574;51.538;-0.084;2022-11-15T04:45:28;3.08;;;1.80;;
34230;SDS011;21574;51.538;-0.084;2022-11-15T04:47:53;4.03;;;1.70;;
34230;SDS011;21574;51.538;-0.084;2022-11-15T04:50:19;2.83;;;1.50;;
34230;SDS011;21574;51.538;-0.084;2022-11-15T04:52:52;2.53;;;1.50;;
34230;SDS011;21574;51.538;-0.084;2022-11-15T04:55:19;2.53;;;1.20;;
34230;SDS011;21574;51.538;-0.084;2022-11-15T04:57:45;2.65;;;1.60;;
34230;SDS011;21574;51.538;-0.084;2022-11-15T05:00:11;1.92;;;1.33;;
34230;SDS011;21574;51.538;-0.084;2022-11-15T05:02:39;2.05;;;1.20;;
34230;SDS011;21574;51.538;-0.084;2022-11-15T05:05:23;2.30;;;1.30;;
34230;SDS011;21574;51.538;-0.084;2022-11-15T05:07:49;4.15;;;1.70;;
34230;SDS011;21574;51.538;-0.084;2022-11-15T05:10:16;2.53;;;1.53;;
34230;SDS011;21574;51.538;-0.084;2022-11-15T05:12:41;1.77;;;1.40;;
34230;SDS011;21574;51.538;-0.084;2022-11-15T05:15:07;1.80;;;1.20;;
34230;SDS011;21574;51.538;-0.084;2022-11-15T05:17:33;1.85;;;1.25;;
34230;SDS011;21574;51.538;-0.084;2022-11-15T05:19:59;2.40;;;1.40;;
34230;SDS011;21574;51.538;-0.084;2022-11-15T05:22:25;2.50;;;1.38;;
34230;SDS011;21574;51.538;-0.084;2022-11-15T05:24:51;3.08;;;1.30;;
34230;SDS011;21574;51.538;-0.084;2022-11-15T05:27:17;1.85;;;1.13;;
34230;SDS011;21574;51.538;-0.084;2022-11-15T05:29:42;2.38;;;1.17;;
34230;SDS011;21574;51.538;-0.084;2022-11-15T05:32:08;2.28;;;1.40;;
34230;SDS011;21574;51.538;-0.084;2022-11-15T05:34:35;2.17;;;1.30;;
34230;SDS011;21574;51.538;-0.084;2022-11-15T05:37:01;1.98;;;1.17;;
34230;SDS011;21574;51.538;-0.084;2022-11-15T05:39:27;3.55;;;1.63;;
34230;SDS011;21574;51.538;-0.084;2022-11-15T05:41:57;3.05;;;1.30;;
34230;SDS011;21574;51.538;-0.084;2022-11-15T05:44:39;2.78;;;1.33;;
34230;SDS011;21574;51.538;-0.084;2022-11-15T05:47:10;2.88;;;1.40;;
34230;SDS011;21574;51.538;-0.084;2022-11-15T05:49:40;3.63;;;1.60;;
34230;SDS011;21574;51.538;-0.084;2022-11-15T05:52:08;2.40;;;1.45;;
34230;SDS011;21574;51.538;-0.084;2022-11-15T05:54:38;2.63;;;1.30;;
34230;SDS011;21574;51.538;-0.084;2022-11-15T05:57:04;2.83;;;1.50;;
34230;SDS011;21574;51.538;-0.084;2022-11-15T05:59:30;2.40;;;1.40;;
34230;SDS011;21574;51.538;-0.084;2022-11-15T06:01:58;3.25;;;1.30;;
34230;SDS011;21574;51.538;-0.084;2022-11-15T06:04:24;1.63;;;1.00;;
34230;SDS011;21574;51.538;-0.084;2022-11-15T06:06:49;1.75;;;1.05;;
34230;SDS011;21574;51.538;-0.084;2022-11-15T06:09:15;1.63;;;1.10;;
34230;SDS011;21574;51.538;-0.084;2022-11-15T06:11:40;2.65;;;1.45;;
34230;SDS011;21574;51.538;-0.084;2022-11-15T06:14:06;2.42;;;1.30;;
34230;SDS011;21574;51.538;-0.084;2022-11-15T06:16:32;2.05;;;1.15;;
34230;SDS011;21574;51.538;-0.084;2022-11-15T06:18:57;1.98;;;1.05;;
34230;SDS011;21574;51.538;-0.084;2022-11-15T06:21:23;2.10;;;1.20;;
34230;SDS011;21574;51.538;-0.084;2022-11-15T06:23:48;1.85;;;1.10;;
34230;SDS011;21574;51.538;-0.084;2022-11-15T06:26:14;2.67;;;1.08;;
34230;SDS011;21574;51.538;-0.084;2022-11-15T06:28:40;2.28;;;1.10;;
34230;SDS011;21574;51.538;-0.084;2022-11-15T06:31:06;1.48;;;1.02;;
34230;SDS011;21574;51.538;-0.084;2022-11-15T06:33:34;1.45;;;1.00;;
34230;SDS011;21574;51.538;-0.084;2022-11-15T06:36:03;2.45;;;1.10;;
34230;SDS011;21574;51.538;-0.084;2022-11-15T06:38:30;3.00;;;1.55;;
34230;SDS011;21574;51.538;-0.084;2022-11-15T06:41:00;4.28;;;1.40;;
34230;SDS011;21574;51.538;-0.084;2022-11-15T06:43:30;1.85;;;1.02;;
34230;SDS011;21574;51.538;-0.084;2022-11-15T06:45:57;2.33;;;1.20;;
34230;SDS011;21574;51.538;-0.084;2022-11-15T06:48:23;1.95;;;1.08;;
34230;SDS011;21574;51.538;-0.084;2022-11-15T06:50:56;1.88;;;1.00;;
34230;SDS011;21574;51.538;-0.084;2022-11-15T06:53:23;1.60;;;1.00;;
34230;SDS011;21574;51.538;-0.084;2022-11-15T06:55:49;1.90;;;1.10;;
34230;SDS011;21574;51.538;-0.084;2022-11-15T06:58:15;2.33;;;1.52;;
34230;SDS011;21574;51.538;-0.084;2022-11-15T07:00:41;2.28;;;1.25;;
34230;SDS011;21574;51.538;-0.084;2022-11-15T07:03:07;1.53;;;1.07;;
34230;SDS011;21574;51.538;-0.084;2022-11-15T07:05:33;2.72;;;1.30;;
34230;SDS011;21574;51.538;-0.084;2022-11-15T07:07:59;1.80;;;1.00;;
34230;SDS011;21574;51.538;-0.084;2022-11-15T07:10:25;2.63;;;1.10;;
34230;SDS011;21574;51.538;-0.084;2022-11-15T07:12:52;2.80;;;1.23;;
34230;SDS011;21574;51.538;-0.084;2022-11-15T07:15:18;3.45;;;1.10;;
34230;SDS011;21574;51.538;-0.084;2022-11-15T07:17:45;1.73;;;1.23;;
34230;SDS011;21574;51.538;-0.084;2022-11-15T07:20:11;2.45;;;1.10;;
34230;SDS011;21574;51.538;-0.084;2022-11-15T07:22:38;2.53;;;1.17;;
34230;SDS011;21574;51.538;-0.084;2022-11-15T07:25:04;2.67;;;1.20;;
34230;SDS011;21574;51.538;-0.084;2022-11-15T07:27:30;2.25;;;1.20;;
34230;SDS011;21574;51.538;-0.084;2022-11-15T07:29:56;4.03;;;1.35;;
34230;SDS011;21574;51.538;-0.084;2022-11-15T07:32:21;1.20;;;0.80;;
34230;SDS011;21574;51.538;-0.084;2022-11-15T07:34:47;3.22;;;1.13;;
34230;SDS011;21574;51.538;-0.084;2022-11-15T07:37:12;2.63;;;1.15;;
34230;SDS011;21574;51.538;-0.084;2022-11-15T07:39:38;3.05;;;1.20;;
34230;SDS011;21574;51.538;-0.084;2022-11-15T07:42:03;2.33;;;1.05;;
34230;SDS011;21574;51.538;-0.084;2022-11-15T07:44:48;1.92;;;1.00;;
34230;SDS011;21574;51.538;-0.084;2022-11-15T07:47:14;3.38;;;1.38;;
34230;SDS011;21574;51.538;-0.084;2022-11-15T07:49:39;1.67;;;1.00;;
34230;SDS011;21574;51.538;-0.084;2022-11-15T07:52:05;4.28;;;1.20;;
34230;SDS011;21574;51.538;-0.084;2022-11-15T07:54:30;2.60;;;1.20;;
34230;SDS011;21574;51.538;-0.084;2022-11-15T07:56:56;2.08;;;1.05;;
34230;SDS011;21574;51.538;-0.084;2022-11-15T07:59:22;2.92;;;1.00;;
34230;SDS011;21574;51.538;-0.084;2022-11-15T08:01:47;3.10;;;1.15;;
34230;SDS011;21574;51.538;-0.084;2022-11-15T08:04:13;2.65;;;1.08;;
34230;SDS011;21574;51.538;-0.084;2022-11-15T08:06:38;2.30;;;0.90;;
34230;SDS011;21574;51.538;-0.084;2022-11-15T08:09:04;1.90;;;1.10;;
34230;SDS011;21574;51.538;-0.084;2022-11-15T08:11:30;2.15;;;1.00;;
34230;SDS011;21574;51.538;-0.084;2022-11-15T08:13:55;5.10;;;1.20;;
34230;SDS011;21574;51.538;-0.084;2022-11-15T08:16:21;3.30;;;1.23;;
34230;SDS011;21574;51.538;-0.084;2022-11-15T08:18:47;2.88;;;1.00;;
34230;SDS011;21574;51.538;-0.084;2022-11-15T08:21:17;3.22;;;1.33;;
34230;SDS011;21574;51.538;-0.084;2022-11-15T08:23:44;1.83;;;1.00;;
34230;SDS011;21574;51.538;-0.084;2022-11-15T08:26:10;2.08;;;1.25;;
34230;SDS011;21574;51.538;-0.084;2022-11-15T08:28:36;3.22;;;1.20;;
34230;SDS011;21574;51.538;-0.084;2022-11-15T08:31:02;1.80;;;1.00;;
34230;SDS011;21574;51.538;-0.084;2022-11-15T08:33:28;2.70;;;1.17;;
34230;SDS011;21574;51.538;-0.084;2022-11-15T08:35:56;2.35;;;1.15;;
34230;SDS011;21574;51.538;-0.084;2022-11-15T08:38:22;3.17;;;1.40;;
34230;SDS011;21574;51.538;-0.084;2022-11-15T08:40:48;2.78;;;1.10;;
34230;SDS011;21574;51.538;-0.084;2022-11-15T08:43:15;2.80;;;1.17;;
34230;SDS011;21574;51.538;-0.084;2022-11-15T08:45:40;1.92;;;1.20;;
34230;SDS011;21574;51.538;-0.084;2022-11-15T08:48:06;3.78;;;1.40;;
34230;SDS011;21574;51.538;-0.084;2022-11-15T08:50:31;3.28;;;1.35;;
34230;SDS011;21574;51.538;-0.084;2022-11-15T08:52:57;2.17;;;1.27;;
34230;SDS011;21574;51.538;-0.084;2022-11-15T08:55:28;1.73;;;1.08;;
34230;SDS011;21574;51.538;-0.084;2022-11-15T08:57:56;2.33;;;1.20;;
34230;SDS011;21574;51.538;-0.084;2022-11-15T09:00:22;2.22;;;1.10;;
34230;SDS011;21574;51.538;-0.084;2022-11-15T09:02:48;2.05;;;1.17;;
34230;SDS011;21574;51.538;-0.084;2022-11-15T09:05:13;2.85;;;1.10;;
34230;SDS011;21574;51.538;-0.084;2022-11-15T09:07:40;3.50;;;1.20;;
34230;SDS011;21574;51.538;-0.084;2022-11-15T09:10:06;3.78;;;1.50;;
34230;SDS011;21574;51.538;-0.084;2022-11-15T09:12:32;2.42;;;1.10;;
34230;SDS011;21574;51.538;-0.084;2022-11-15T09:14:57;2.70;;;1.13;;
34230;SDS011;21574;51.538;-0.084;2022-11-15T09:17:23;2.85;;;1.00;;
34230;SDS011;21574;51.538;-0.084;2022-11-15T09:19:48;4.50;;;1.50;;
34230;SDS011;21574;51.538;-0.084;2022-11-15T09:22:14;2.20;;;1.00;;
34230;SDS011;21574;51.538;-0.084;2022-11-15T09:24:39;2.15;;;1.20;;
34230;SDS011;21574;51.538;-0.084;2022-11-15T09:27:05;2.25;;;1.33;;
34230;SDS011;21574;51.538;-0.084;2022-11-15T09:29:31;2.05;;;1.30;;
34230;SDS011;21574;51.538;-0.084;2022-11-15T09:31:56;2.90;;;1.30;;
34230;SDS011;21574;51.538;-0.084;2022-11-15T09:34:22;2.72;;;1.15;;
34230;SDS011;21574;51.538;-0.084;2022-11-15T09:36:47;1.95;;;1.13;;
34230;SDS011;21574;51.538;-0.084;2022-11-15T09:39:13;3.13;;;1.58;;
34230;SDS011;21574;51.538;-0.084;2022-11-15T09:44:18;2.08;;;1.00;;
34230;SDS011;21574;51.538;-0.084;2022-11-15T09:49:31;2.30;;;1.30;;
34230;SDS011;21574;51.538;-0.084;2022-11-15T09:51:57;2.45;;;1.30;;
34230;SDS011;21574;51.538;-0.084;2022-11-15T09:54:28;1.95;;;1.00;;
34230;SDS011;21574;51.538;-0.084;2022-11-15T09:57:09;2.55;;;1.23;;
34230;SDS011;21574;51.538;-0.084;2022-11-15T10:02:46;2.25;;;1.08;;
34230;SDS011;21574;51.538;-0.084;2022-11-15T10:05:47;2.67;;;1.35;;
34230;SDS011;21574;51.538;-0.084;2022-11-15T10:10:52;2.20;;;1.20;;
34230;SDS011;21574;51.538;-0.084;2022-11-15T10:13:23;3.22;;;1.13;;
34230;SDS011;21574;51.538;-0.084;2022-11-15T10:15:51;2.75;;;1.25;;
34230;SDS011;21574;51.538;-0.084;2022-11-15T10:21:25;1.85;;;1.00;;
34230;SDS011;21574;51.538;-0.084;2022-11-15T10:24:00;2.15;;;0.95;;
34230;SDS011;21574;51.538;-0.084;2022-11-15T10:26:26;3.55;;;1.20;;
34230;SDS011;21574;51.538;-0.084;2022-11-15T10:28:53;3.30;;;1.02;;
34230;SDS011;21574;51.538;-0.084;2022-11-15T10:31:25;2.15;;;1.00;;
34230;SDS011;21574;51.538;-0.084;2022-11-15T10:34:12;1.67;;;0.80;;
34230;SDS011;21574;51.538;-0.084;2022-11-15T10:36:43;1.92;;;1.02;;
34230;SDS011;21574;51.538;-0.084;2022-11-15T10:39:19;3.03;;;1.17;;
34230;SDS011;21574;51.538;-0.084;2022-11-15T10:41:44;2.22;;;1.20;;
34230;SDS011;21574;51.538;-0.084;2022-11-15T10:46:42;2.40;;;1.15;;
34230;SDS011;21574;51.538;-0.084;2022-11-15T10:49:18;2.53;;;1.42;;
34230;SDS011;21574;51.538;-0.084;2022-11-15T10:54:24;2.33;;;0.90;;
34230;SDS011;21574;51.538;-0.084;2022-11-15T10:56:57;2.35;;;1.17;;
34230;SDS011;21574;51.538;-0.084;2022-11-15T10:59:26;1.67;;;0.95;;
34230;SDS011;21574;51.538;-0.084;2022-11-15T11:01:57;1.73;;;1.10;;
34230;SDS011;21574;51.538;-0.084;2022-11-15T11:04:23;1.73;;;0.93;;
34230;SDS011;21574;51.538;-0.084;2022-11-15T11:06:49;2.25;;;0.90;;
34230;SDS011;21574;51.538;-0.084;2022-11-15T11:14:25;2.17;;;1.00;;
34230;SDS011;21574;51.538;-0.084;2022-11-15T11:19:36;1.98;;;1.00;;
34230;SDS011;21574;51.538;-0.084;2022-11-15T11:22:20;1.00;;;0.70;;
34230;SDS011;21574;51.538;-0.084;2022-11-15T11:25:14;2.25;;;1.00;;
34230;SDS011;21574;51.538;-0.084;2022-11-15T11:44:06;2.03;;;0.98;;
34230;SDS011;21574;51.538;-0.084;2022-11-15T11:46:49;1.38;;;0.90;;
34230;SDS011;21574;51.538;-0.084;2022-11-15T11:49:45;2.38;;;0.90;;
34230;SDS011;21574;51.538;-0.084;2022-11-15T11:52:32;1.48;;;0.93;;
34230;SDS011;21574;51.538;-0.084;2022-11-15T12:01:14;1.63;;;0.85;;
34230;SDS011;21574;51.538;-0.084;2022-11-15T12:06:25;1.75;;;1.00;;
34230;SDS011;21574;51.538;-0.084;2022-11-15T12:09:11;1.58;;;0.98;;
34230;SDS011;21574;51.538;-0.084;2022-11-15T12:17:45;1.02;;;0.80;;
34230;SDS011;21574;51.538;-0.084;2022-11-15T12:20:20;1.13;;;0.70;;
34230;SDS011;21574;51.538;-0.084;2022-11-15T12:22:55;1.42;;;0.70;;
34230;SDS011;21574;51.538;-0.084;2022-11-15T12:25:41;1.23;;;0.80;;
34230;SDS011;21574;51.538;-0.084;2022-11-15T12:28:26;1.20;;;0.80;;
34230;SDS011;21574;51.538;-0.084;2022-11-15T12:31:15;1.13;;;0.80;;
34230;SDS011;21574;51.538;-0.084;2022-11-15T12:33:43;1.30;;;0.93;;
34230;SDS011;21574;51.538;-0.084;2022-11-15T12:39:07;1.48;;;0.52;;
34230;SDS011;21574;51.538;-0.084;2022-11-15T13:27:58;2.17;;;0.82;;
34230;SDS011;21574;51.538;-0.084;2022-11-15T13:32:52;1.42;;;0.70;;
34230;SDS011;21574;51.538;-0.084;2022-11-15T13:35:22;1.63;;;0.90;;
34230;SDS011;21574;51.538;-0.084;2022-11-15T13:37:50;1.35;;;0.90;;
34230;SDS011;21574;51.538;-0.084;2022-11-15T13:40:20;2.50;;;0.80;;
34230;SDS011;21574;51.538;-0.084;2022-11-15T13:42:52;2.15;;;0.90;;
34230;SDS011;21574;51.538;-0.084;2022-11-15T13:45:19;1.63;;;1.00;;
34230;SDS011;21574;51.538;-0.084;2022-11-15T13:47:47;1.02;;;0.77;;
34230;SDS011;21574;51.538;-0.084;2022-11-15T13:50:17;1.65;;;1.00;;
34230;SDS011;21574;51.538;-0.084;2022-11-15T13:52:44;3.65;;;1.00;;
34230;SDS011;21574;51.538;-0.084;2022-11-15T13:55:14;2.25;;;1.05;;
34230;SDS011;21574;51.538;-0.084;2022-11-15T13:57:51;2.55;;;1.00;;
34230;SDS011;21574;51.538;-0.084;2022-11-15T14:00:41;2.22;;;0.88;;
34230;SDS011;21574;51.538;-0.084;2022-11-15T14:03:18;1.40;;;0.80;;
34230;SDS011;21574;51.538;-0.084;2022-11-15T14:05:58;2.13;;;1.05;;
34230;SDS011;21574;51.538;-0.084;2022-11-15T14:11:27;2.42;;;0.90;;
34230;SDS011;21574;51.538;-0.084;2022-11-15T14:16:35;1.58;;;0.77;;
34230;SDS011;21574;51.538;-0.084;2022-11-15T14:19:01;0.68;;;0.52;;
34230;SDS011;21574;51.538;-0.084;2022-11-15T14:21:28;1.63;;;0.80;;
34230;SDS011;21574;51.538;-0.084;2022-11-15T14:24:13;1.75;;;0.88;;
34230;SDS011;21574;51.538;-0.084;2022-11-15T14:26:43;1.83;;;0.73;;
34230;SDS011;21574;51.538;-0.084;2022-11-15T14:29:28;2.17;;;1.00;;
34230;SDS011;21574;51.538;-0.084;2022-11-15T14:32:16;2.00;;;0.85;;
34230;SDS011;21574;51.538;-0.084;2022-11-15T14:34:54;1.38;;;0.65;;
34230;SDS011;21574;51.538;-0.084;2022-11-15T14:37:24;1.42;;;0.70;;
34230;SDS011;21574;51.538;-0.084;2022-11-15T14:39:52;2.13;;;1.10;;
34230;SDS011;21574;51.538;-0.084;2022-11-15T14:42:18;1.35;;;0.80;;
34230;SDS011;21574;51.538;-0.084;2022-11-15T14:44:44;1.53;;;0.97;;
34230;SDS011;21574;51.538;-0.084;2022-11-15T14:47:10;1.95;;;1.20;;
34230;SDS011;21574;51.538;-0.084;2022-11-15T14:49:36;1.27;;;0.75;;
34230;SDS011;21574;51.538;-0.084;2022-11-15T14:52:01;2.47;;;0.90;;
34230;SDS011;21574;51.538;-0.084;2022-11-15T14:54:30;1.77;;;0.82;;
34230;SDS011;21574;51.538;-0.084;2022-11-15T14:56:55;2.00;;;0.88;;
34230;SDS011;21574;51.538;-0.084;2022-11-15T14:59:21;1.10;;;0.60;;
34230;SDS011;21574;51.538;-0.084;2022-11-15T15:01:46;1.55;;;1.00;;
34230;SDS011;21574;51.538;-0.084;2022-11-15T15:04:12;1.63;;;0.73;;
34230;SDS011;21574;51.538;-0.084;2022-11-15T15:06:37;1.45;;;0.88;;
34230;SDS011;21574;51.538;-0.084;2022-11-15T15:09:03;1.02;;;0.70;;
34230;SDS011;21574;51.538;-0.084;2022-11-15T15:11:29;1.70;;;0.80;;
34230;SDS011;21574;51.538;-0.084;2022-11-15T15:16:24;1.40;;;0.80;;
34230;SDS011;21574;51.538;-0.084;2022-11-15T15:18:52;1.83;;;1.05;;
34230;SDS011;21574;51.538;-0.084;2022-11-15T15:21:20;0.95;;;0.60;;
34230;SDS011;21574;51.538;-0.084;2022-11-15T15:23:48;3.53;;;0.70;;
34230;SDS011;21574;51.538;-0.084;2022-11-15T15:26:14;1.17;;;0.75;;
34230;SDS011;21574;51.538;-0.084;2022-11-15T15:28:40;0.80;;;0.60;;
34230;SDS011;21574;51.538;-0.084;2022-11-15T15:31:06;1.05;;;0.63;;
34230;SDS011;21574;51.538;-0.084;2022-11-15T15:33:32;1.52;;;0.95;;
34230;SDS011;21574;51.538;-0.084;2022-11-15T15:35:58;2.35;;;1.08;;
34230;SDS011;21574;51.538;-0.084;2022-11-15T15:38:24;1.27;;;0.70;;
34230;SDS011;21574;51.538;-0.084;2022-11-15T15:40:49;1.02;;;0.80;;
34230;SDS011;21574;51.538;-0.084;2022-11-15T15:43:15;2.03;;;0.80;;
34230;SDS011;21574;51.538;-0.084;2022-11-15T15:45:41;1.15;;;0.80;;
34230;SDS011;21574;51.538;-0.084;2022-11-15T15:48:10;1.97;;;0.70;;
34230;SDS011;21574;51.538;-0.084;2022-11-15T15:50:37;1.58;;;1.00;;
34230;SDS011;21574;51.538;-0.084;2022-11-15T15:53:04;3.17;;;0.88;;
34230;SDS011;21574;51.538;-0.084;2022-11-15T15:55:30;2.13;;;0.80;;
34230;SDS011;21574;51.538;-0.084;2022-11-15T15:57:56;1.33;;;0.60;;
34230;SDS011;21574;51.538;-0.084;2022-11-15T16:00:23;1.77;;;0.82;;
34230;SDS011;21574;51.538;-0.084;2022-11-15T16:02:50;2.25;;;0.65;;
34230;SDS011;21574;51.538;-0.084;2022-11-15T16:05:16;2.13;;;0.90;;
34230;SDS011;21574;51.538;-0.084;2022-11-15T16:07:42;1.35;;;0.82;;
34230;SDS011;21574;51.538;-0.084;2022-11-15T16:13:03;1.02;;;0.65;;
34230;SDS011;21574;51.538;-0.084;2022-11-15T16:15:29;1.05;;;0.60;;
34230;SDS011;21574;51.538;-0.084;2022-11-15T16:23:03;3.45;;;0.95;;
34230;SDS011;21574;51.538;-0.084;2022-11-15T16:25:32;1.70;;;0.70;;
34230;SDS011;21574;51.538;-0.084;2022-11-15T16:28:03;1.10;;;0.60;;
34230;SDS011;21574;51.538;-0.084;2022-11-15T16:30:28;2.35;;;0.80;;
34230;SDS011;21574;51.538;-0.084;2022-11-15T16:32:54;1.23;;;0.65;;
34230;SDS011;21574;51.538;-0.084;2022-11-15T16:35:20;1.70;;;0.80;;
34230;SDS011;21574;51.538;-0.084;2022-11-15T16:37:45;2.00;;;0.98;;
34230;SDS011;21574;51.538;-0.084;2022-11-15T16:40:17;1.45;;;1.00;;
34230;SDS011;21574;51.538;-0.084;2022-11-15T16:42:54;1.75;;;0.70;;
34230;SDS011;21574;51.538;-0.084;2022-11-15T16:45:21;2.47;;;0.70;;
34230;SDS011;21574;51.538;-0.084;2022-11-15T16:47:47;2.15;;;0.73;;
34230;SDS011;21574;51.538;-0.084;2022-11-15T16:50:23;1.77;;;0.90;;
34230;SDS011;21574;51.538;-0.084;2022-11-15T16:52:54;1.08;;;0.60;;
34230;SDS011;21574;51.538;-0.084;2022-11-15T16:55:23;1.88;;;0.80;;
34230;SDS011;21574;51.538;-0.084;2022-11-15T16:57:50;1.88;;;0.70;;
34230;SDS011;21574;51.538;-0.084;2022-11-15T17:00:17;2.67;;;0.63;;
34230;SDS011;21574;51.538;-0.084;2022-11-15T17:02:44;1.73;;;0.70;;
34230;SDS011;21574;51.538;-0.084;2022-11-15T17:05:11;0.90;;;0.60;;
34230;SDS011;21574;51.538;-0.084;2022-11-15T17:07:37;1.83;;;0.70;;
34230;SDS011;21574;51.538;-0.084;2022-11-15T17:10:04;1.80;;;1.00;;
34230;SDS011;21574;51.538;-0.084;2022-11-15T17:12:31;1.42;;;0.98;;
34230;SDS011;21574;51.538;-0.084;2022-11-15T17:15:00;1.98;;;0.98;;
34230;SDS011;21574;51.538;-0.084;2022-11-15T17:17:26;2.37;;;0.57;;